• location
  • image
mod_vvisit_countermod_vvisit_countermod_vvisit_countermod_vvisit_countermod_vvisit_countermod_vvisit_counter
mod_vvisit_counterToday155
mod_vvisit_counterYesterday257
mod_vvisit_counterThis week155
mod_vvisit_counterLast week3960
mod_vvisit_counterThis month17488
mod_vvisit_counterLast month19793
mod_vvisit_counterAll days201091

We have: 2 guests online
Your IP: 54.167.5.15
 , 
Today: Aug 31, 2015
Airport

AP V2 EN

 

 

You can watch a film about services of Siauliai International Airport

Today

Monday, 31 August 2015

Weather Forecast

Siauliai 23 °C
   

Aviation Weather Forecast

[source: ADDS]
METAR
EYSA 311320Z 06003KT 340V130 CAVOK 23/04 Q1018 =
TAF
TAF EYSA 311100Z 3112/3121 VRB04KT CAVOK TEMPO 3112/3116 03014KT BECMG 3117/3119 9000 BKN035 TEMPO 3119/3121 4000 SHRA BKN018CB =
SR / SS: 03:32 / 17:23 UTC (EYSA 2015-08-31)

Search

Who's Online

We have 2 guests online

tic logo en